sensor_id;sensor_type;location;lat;lon;timestamp;temperature;humidity
28071;DHT22;15383;48.408;9.968;2023-06-04T00:00:05;18.90;65.00
28071;DHT22;15383;48.408;9.968;2023-06-04T00:02:30;18.90;64.90
28071;DHT22;15383;48.408;9.968;2023-06-04T00:04:56;18.90;64.90
28071;DHT22;15383;48.408;9.968;2023-06-04T00:07:21;18.90;64.80
28071;DHT22;15383;48.408;9.968;2023-06-04T00:09:47;18.90;64.70
28071;DHT22;15383;48.408;9.968;2023-06-04T00:12:13;18.90;64.70
28071;DHT22;15383;48.408;9.968;2023-06-04T00:14:38;18.90;64.70
28071;DHT22;15383;48.408;9.968;2023-06-04T00:17:04;18.80;64.70
28071;DHT22;15383;48.408;9.968;2023-06-04T00:19:29;18.80;64.60
28071;DHT22;15383;48.408;9.968;2023-06-04T00:21:55;18.90;64.60
28071;DHT22;15383;48.408;9.968;2023-06-04T00:24:21;18.80;64.70
28071;DHT22;15383;48.408;9.968;2023-06-04T00:26:46;18.80;64.50
28071;DHT22;15383;48.408;9.968;2023-06-04T00:29:12;18.80;64.60
28071;DHT22;15383;48.408;9.968;2023-06-04T00:31:37;18.80;64.50
28071;DHT22;15383;48.408;9.968;2023-06-04T00:34:03;18.80;64.60
28071;DHT22;15383;48.408;9.968;2023-06-04T00:36:29;18.80;64.50
28071;DHT22;15383;48.408;9.968;2023-06-04T00:38:54;18.80;64.60
28071;DHT22;15383;48.408;9.968;2023-06-04T00:41:20;18.80;64.30
28071;DHT22;15383;48.408;9.968;2023-06-04T00:43:45;18.80;64.50
28071;DHT22;15383;48.408;9.968;2023-06-04T00:46:21;18.80;64.60
28071;DHT22;15383;48.408;9.968;2023-06-04T00:48:46;18.80;64.30
28071;DHT22;15383;48.408;9.968;2023-06-04T00:51:12;18.80;64.40
28071;DHT22;15383;48.408;9.968;2023-06-04T00:53:38;18.80;64.30
28071;DHT22;15383;48.408;9.968;2023-06-04T00:56:06;18.70;64.30
28071;DHT22;15383;48.408;9.968;2023-06-04T00:58:33;18.70;64.20
28071;DHT22;15383;48.408;9.968;2023-06-04T01:01:02;18.70;64.20
28071;DHT22;15383;48.408;9.968;2023-06-04T01:03:29;18.70;64.10
28071;DHT22;15383;48.408;9.968;2023-06-04T01:06:00;18.70;64.10
28071;DHT22;15383;48.408;9.968;2023-06-04T01:08:29;18.70;64.10
28071;DHT22;15383;48.408;9.968;2023-06-04T01:10:55;18.70;64.00
28071;DHT22;15383;48.408;9.968;2023-06-04T01:13:21;18.70;64.10
28071;DHT22;15383;48.408;9.968;2023-06-04T01:15:47;18.70;64.00
28071;DHT22;15383;48.408;9.968;2023-06-04T01:18:13;18.70;64.00
28071;DHT22;15383;48.408;9.968;2023-06-04T01:20:49;18.70;63.90
28071;DHT22;15383;48.408;9.968;2023-06-04T01:23:23;18.70;63.90
28071;DHT22;15383;48.408;9.968;2023-06-04T01:25:52;18.70;63.80
28071;DHT22;15383;48.408;9.968;2023-06-04T01:28:18;18.70;63.70
28071;DHT22;15383;48.408;9.968;2023-06-04T01:30:46;18.70;63.70
28071;DHT22;15383;48.408;9.968;2023-06-04T01:33:13;18.60;63.70
28071;DHT22;15383;48.408;9.968;2023-06-04T01:35:39;18.60;63.50
28071;DHT22;15383;48.408;9.968;2023-06-04T01:38:05;18.60;63.60
28071;DHT22;15383;48.408;9.968;2023-06-04T01:40:30;18.60;63.30
28071;DHT22;15383;48.408;9.968;2023-06-04T01:42:56;18.60;63.30
28071;DHT22;15383;48.408;9.968;2023-06-04T01:45:22;18.60;63.30
28071;DHT22;15383;48.408;9.968;2023-06-04T01:47:47;18.60;63.20
28071;DHT22;15383;48.408;9.968;2023-06-04T01:50:13;18.60;63.20
28071;DHT22;15383;48.408;9.968;2023-06-04T01:52:39;18.60;63.10
28071;DHT22;15383;48.408;9.968;2023-06-04T01:55:05;18.60;63.00
28071;DHT22;15383;48.408;9.968;2023-06-04T01:57:33;18.60;62.90
28071;DHT22;15383;48.408;9.968;2023-06-04T01:59:58;18.50;62.70
28071;DHT22;15383;48.408;9.968;2023-06-04T02:02:24;18.50;62.80
28071;DHT22;15383;48.408;9.968;2023-06-04T02:04:50;18.60;62.80
28071;DHT22;15383;48.408;9.968;2023-06-04T02:07:18;18.50;62.70
28071;DHT22;15383;48.408;9.968;2023-06-04T02:10:07;18.50;62.70
28071;DHT22;15383;48.408;9.968;2023-06-04T02:12:32;18.50;62.60
28071;DHT22;15383;48.408;9.968;2023-06-04T02:14:58;18.50;62.50
28071;DHT22;15383;48.408;9.968;2023-06-04T02:17:23;18.50;62.50
28071;DHT22;15383;48.408;9.968;2023-06-04T02:19:50;18.50;62.50
28071;DHT22;15383;48.408;9.968;2023-06-04T02:22:16;18.50;62.40
28071;DHT22;15383;48.408;9.968;2023-06-04T02:24:42;18.50;62.40
28071;DHT22;15383;48.408;9.968;2023-06-04T02:27:08;18.40;62.40
28071;DHT22;15383;48.408;9.968;2023-06-04T02:29:33;18.50;62.50
28071;DHT22;15383;48.408;9.968;2023-06-04T02:31:59;18.50;62.40
28071;DHT22;15383;48.408;9.968;2023-06-04T02:34:25;18.50;62.20
28071;DHT22;15383;48.408;9.968;2023-06-04T02:36:50;18.50;62.20
28071;DHT22;15383;48.408;9.968;2023-06-04T02:39:16;18.40;62.20
28071;DHT22;15383;48.408;9.968;2023-06-04T02:41:42;18.40;62.20
28071;DHT22;15383;48.408;9.968;2023-06-04T02:44:07;18.40;62.10
28071;DHT22;15383;48.408;9.968;2023-06-04T02:46:33;18.40;62.10
28071;DHT22;15383;48.408;9.968;2023-06-04T02:48:58;18.40;62.00
28071;DHT22;15383;48.408;9.968;2023-06-04T02:51:24;18.40;62.10
28071;DHT22;15383;48.408;9.968;2023-06-04T02:53:50;18.40;62.10
28071;DHT22;15383;48.408;9.968;2023-06-04T02:56:15;18.40;62.80
28071;DHT22;15383;48.408;9.968;2023-06-04T02:58:53;18.40;61.90
28071;DHT22;15383;48.408;9.968;2023-06-04T03:01:24;18.40;62.00
28071;DHT22;15383;48.408;9.968;2023-06-04T03:03:50;18.40;61.90
28071;DHT22;15383;48.408;9.968;2023-06-04T03:06:16;18.40;61.90
28071;DHT22;15383;48.408;9.968;2023-06-04T03:08:42;18.40;62.00
28071;DHT22;15383;48.408;9.968;2023-06-04T03:11:08;18.30;61.80
28071;DHT22;15383;48.408;9.968;2023-06-04T03:13:33;18.30;61.80
28071;DHT22;15383;48.408;9.968;2023-06-04T03:15:59;18.30;61.80
28071;DHT22;15383;48.408;9.968;2023-06-04T03:18:28;18.30;61.70
28071;DHT22;15383;48.408;9.968;2023-06-04T03:20:53;18.30;61.80
28071;DHT22;15383;48.408;9.968;2023-06-04T03:23:19;18.30;61.80
28071;DHT22;15383;48.408;9.968;2023-06-04T03:25:45;18.30;61.80
28071;DHT22;15383;48.408;9.968;2023-06-04T03:28:10;18.30;61.70
28071;DHT22;15383;48.408;9.968;2023-06-04T03:30:36;18.30;61.80
28071;DHT22;15383;48.408;9.968;2023-06-04T03:33:01;18.30;61.70
28071;DHT22;15383;48.408;9.968;2023-06-04T03:35:28;18.30;61.60
28071;DHT22;15383;48.408;9.968;2023-06-04T03:37:53;18.30;61.70
28071;DHT22;15383;48.408;9.968;2023-06-04T03:40:19;18.30;61.70
28071;DHT22;15383;48.408;9.968;2023-06-04T03:42:44;18.20;61.60
28071;DHT22;15383;48.408;9.968;2023-06-04T03:45:10;18.20;61.60
28071;DHT22;15383;48.408;9.968;2023-06-04T03:47:35;18.20;61.60
28071;DHT22;15383;48.408;9.968;2023-06-04T03:50:01;18.20;61.60
28071;DHT22;15383;48.408;9.968;2023-06-04T03:52:27;18.20;61.60
28071;DHT22;15383;48.408;9.968;2023-06-04T03:54:52;18.20;61.60
28071;DHT22;15383;48.408;9.968;2023-06-04T03:57:18;18.20;61.90
28071;DHT22;15383;48.408;9.968;2023-06-04T03:59:43;18.20;61.60
28071;DHT22;15383;48.408;9.968;2023-06-04T04:02:09;18.20;61.60
28071;DHT22;15383;48.408;9.968;2023-06-04T04:04:34;18.20;61.60
28071;DHT22;15383;48.408;9.968;2023-06-04T04:07:00;18.20;61.60
28071;DHT22;15383;48.408;9.968;2023-06-04T04:09:26;18.20;61.60
28071;DHT22;15383;48.408;9.968;2023-06-04T04:11:51;18.20;61.60
28071;DHT22;15383;48.408;9.968;2023-06-04T04:14:17;18.20;61.50
28071;DHT22;15383;48.408;9.968;2023-06-04T04:16:42;18.20;61.60
28071;DHT22;15383;48.408;9.968;2023-06-04T04:19:08;18.20;61.50
28071;DHT22;15383;48.408;9.968;2023-06-04T04:21:34;18.20;61.60
28071;DHT22;15383;48.408;9.968;2023-06-04T04:24:02;18.20;61.60
28071;DHT22;15383;48.408;9.968;2023-06-04T04:26:28;18.10;61.40
28071;DHT22;15383;48.408;9.968;2023-06-04T04:28:54;18.20;61.60
28071;DHT22;15383;48.408;9.968;2023-06-04T04:31:26;18.20;61.60
28071;DHT22;15383;48.408;9.968;2023-06-04T04:33:52;18.20;61.60
28071;DHT22;15383;48.408;9.968;2023-06-04T04:36:19;18.20;61.60
28071;DHT22;15383;48.408;9.968;2023-06-04T04:38:44;18.20;61.60
28071;DHT22;15383;48.408;9.968;2023-06-04T04:41:11;18.20;61.60
28071;DHT22;15383;48.408;9.968;2023-06-04T04:43:37;18.20;61.60
28071;DHT22;15383;48.408;9.968;2023-06-04T04:46:04;18.20;61.60
28071;DHT22;15383;48.408;9.968;2023-06-04T04:48:30;18.20;61.60
28071;DHT22;15383;48.408;9.968;2023-06-04T04:50:56;18.10;61.50
28071;DHT22;15383;48.408;9.968;2023-06-04T04:53:21;18.10;61.50
28071;DHT22;15383;48.408;9.968;2023-06-04T04:55:47;18.20;61.60
28071;DHT22;15383;48.408;9.968;2023-06-04T04:58:12;18.20;61.70
28071;DHT22;15383;48.408;9.968;2023-06-04T05:00:38;18.10;61.60
28071;DHT22;15383;48.408;9.968;2023-06-04T05:03:04;18.20;61.70
28071;DHT22;15383;48.408;9.968;2023-06-04T05:05:32;18.20;61.70
28071;DHT22;15383;48.408;9.968;2023-06-04T05:07:58;18.20;61.70
28071;DHT22;15383;48.408;9.968;2023-06-04T05:10:24;18.30;61.80
28071;DHT22;15383;48.408;9.968;2023-06-04T05:15:18;18.30;61.90
28071;DHT22;15383;48.408;9.968;2023-06-04T05:17:45;18.30;61.90
28071;DHT22;15383;48.408;9.968;2023-06-04T05:20:12;18.30;61.90
28071;DHT22;15383;48.408;9.968;2023-06-04T05:22:38;18.30;62.00
28071;DHT22;15383;48.408;9.968;2023-06-04T05:25:03;18.30;62.10
28071;DHT22;15383;48.408;9.968;2023-06-04T05:27:29;18.30;62.00
28071;DHT22;15383;48.408;9.968;2023-06-04T05:29:57;18.30;59.70
28071;DHT22;15383;48.408;9.968;2023-06-04T05:32:22;18.30;58.80
28071;DHT22;15383;48.408;9.968;2023-06-04T05:34:48;18.20;58.70
28071;DHT22;15383;48.408;9.968;2023-06-04T05:37:13;18.20;58.10
28071;DHT22;15383;48.408;9.968;2023-06-04T05:39:42;18.20;57.90
28071;DHT22;15383;48.408;9.968;2023-06-04T05:42:07;18.10;57.50
28071;DHT22;15383;48.408;9.968;2023-06-04T05:44:33;18.10;57.40
28071;DHT22;15383;48.408;9.968;2023-06-04T05:46:59;18.20;57.70
28071;DHT22;15383;48.408;9.968;2023-06-04T05:49:24;18.20;57.40
28071;DHT22;15383;48.408;9.968;2023-06-04T05:51:50;18.20;57.10
28071;DHT22;15383;48.408;9.968;2023-06-04T05:54:15;18.20;57.10
28071;DHT22;15383;48.408;9.968;2023-06-04T05:56:41;18.20;57.30
28071;DHT22;15383;48.408;9.968;2023-06-04T05:59:06;18.20;57.50
28071;DHT22;15383;48.408;9.968;2023-06-04T06:01:32;18.20;57.00
28071;DHT22;15383;48.408;9.968;2023-06-04T06:04:00;18.30;56.80
28071;DHT22;15383;48.408;9.968;2023-06-04T06:06:26;18.40;56.60
28071;DHT22;15383;48.408;9.968;2023-06-04T06:08:51;18.20;57.10
28071;DHT22;15383;48.408;9.968;2023-06-04T06:11:17;18.30;56.80
28071;DHT22;15383;48.408;9.968;2023-06-04T06:13:43;18.30;56.40
28071;DHT22;15383;48.408;9.968;2023-06-04T06:16:09;18.30;56.40
28071;DHT22;15383;48.408;9.968;2023-06-04T06:18:34;18.40;56.40
28071;DHT22;15383;48.408;9.968;2023-06-04T06:21:00;18.40;56.30
28071;DHT22;15383;48.408;9.968;2023-06-04T06:23:25;18.40;56.40
28071;DHT22;15383;48.408;9.968;2023-06-04T06:25:51;18.40;56.30
28071;DHT22;15383;48.408;9.968;2023-06-04T06:28:17;18.50;56.40
28071;DHT22;15383;48.408;9.968;2023-06-04T06:30:43;18.50;56.20
28071;DHT22;15383;48.408;9.968;2023-06-04T06:33:09;18.50;56.00
28071;DHT22;15383;48.408;9.968;2023-06-04T06:35:35;18.50;56.00
28071;DHT22;15383;48.408;9.968;2023-06-04T06:38:00;18.50;56.00
28071;DHT22;15383;48.408;9.968;2023-06-04T06:40:26;18.60;56.00
28071;DHT22;15383;48.408;9.968;2023-06-04T06:42:51;18.60;56.20
28071;DHT22;15383;48.408;9.968;2023-06-04T06:45:17;18.60;56.20
28071;DHT22;15383;48.408;9.968;2023-06-04T06:47:43;18.60;56.10
28071;DHT22;15383;48.408;9.968;2023-06-04T06:50:08;18.70;56.20
28071;DHT22;15383;48.408;9.968;2023-06-04T06:52:34;18.70;56.40
28071;DHT22;15383;48.408;9.968;2023-06-04T06:54:59;18.80;56.50
28071;DHT22;15383;48.408;9.968;2023-06-04T06:57:25;18.90;56.20
28071;DHT22;15383;48.408;9.968;2023-06-04T06:59:50;18.80;56.00
28071;DHT22;15383;48.408;9.968;2023-06-04T07:02:19;18.90;56.20
28071;DHT22;15383;48.408;9.968;2023-06-04T07:04:45;18.90;56.50
28071;DHT22;15383;48.408;9.968;2023-06-04T07:07:10;19.00;56.90
28071;DHT22;15383;48.408;9.968;2023-06-04T07:09:36;19.00;56.60
28071;DHT22;15383;48.408;9.968;2023-06-04T07:12:01;19.10;56.80
28071;DHT22;15383;48.408;9.968;2023-06-04T07:14:26;19.10;56.80
28071;DHT22;15383;48.408;9.968;2023-06-04T07:16:52;19.10;56.70
28071;DHT22;15383;48.408;9.968;2023-06-04T07:19:17;19.20;56.80
28071;DHT22;15383;48.408;9.968;2023-06-04T07:21:43;19.20;56.80
28071;DHT22;15383;48.408;9.968;2023-06-04T07:24:08;19.30;56.70
28071;DHT22;15383;48.408;9.968;2023-06-04T07:26:34;19.30;57.70
28071;DHT22;15383;48.408;9.968;2023-06-04T07:28:59;19.40;56.80
28071;DHT22;15383;48.408;9.968;2023-06-04T07:31:31;19.40;57.20
28071;DHT22;15383;48.408;9.968;2023-06-04T07:33:56;19.40;56.70
28071;DHT22;15383;48.408;9.968;2023-06-04T07:36:22;19.50;56.60
28071;DHT22;15383;48.408;9.968;2023-06-04T07:38:48;19.50;56.50
28071;DHT22;15383;48.408;9.968;2023-06-04T07:41:13;19.50;56.20
28071;DHT22;15383;48.408;9.968;2023-06-04T07:43:39;19.50;56.30
28071;DHT22;15383;48.408;9.968;2023-06-04T07:46:04;19.60;56.40
28071;DHT22;15383;48.408;9.968;2023-06-04T07:48:30;19.60;56.50
28071;DHT22;15383;48.408;9.968;2023-06-04T07:50:56;19.70;56.50
28071;DHT22;15383;48.408;9.968;2023-06-04T07:53:22;19.70;56.50
28071;DHT22;15383;48.408;9.968;2023-06-04T07:55:47;19.80;56.50
28071;DHT22;15383;48.408;9.968;2023-06-04T07:58:13;19.90;56.50
28071;DHT22;15383;48.408;9.968;2023-06-04T08:00:38;19.90;56.20
28071;DHT22;15383;48.408;9.968;2023-06-04T08:03:04;19.90;56.40
28071;DHT22;15383;48.408;9.968;2023-06-04T08:05:30;20.00;56.40
28071;DHT22;15383;48.408;9.968;2023-06-04T08:07:56;20.00;56.30
28071;DHT22;15383;48.408;9.968;2023-06-04T08:10:21;20.00;56.10
28071;DHT22;15383;48.408;9.968;2023-06-04T08:12:50;20.10;56.00
28071;DHT22;15383;48.408;9.968;2023-06-04T08:15:15;20.10;55.80
28071;DHT22;15383;48.408;9.968;2023-06-04T08:17:41;20.20;56.20
28071;DHT22;15383;48.408;9.968;2023-06-04T08:20:07;20.20;55.90
28071;DHT22;15383;48.408;9.968;2023-06-04T08:22:34;20.20;55.90
28071;DHT22;15383;48.408;9.968;2023-06-04T08:24:59;20.30;56.30
28071;DHT22;15383;48.408;9.968;2023-06-04T08:27:25;20.30;56.00
28071;DHT22;15383;48.408;9.968;2023-06-04T08:29:51;20.40;55.70
28071;DHT22;15383;48.408;9.968;2023-06-04T08:32:17;20.40;55.70
28071;DHT22;15383;48.408;9.968;2023-06-04T08:34:43;20.50;55.80
28071;DHT22;15383;48.408;9.968;2023-06-04T08:37:08;20.50;55.90
28071;DHT22;15383;48.408;9.968;2023-06-04T08:39:34;20.50;55.80
28071;DHT22;15383;48.408;9.968;2023-06-04T08:42:00;20.50;55.60
28071;DHT22;15383;48.408;9.968;2023-06-04T08:44:27;20.50;55.70
28071;DHT22;15383;48.408;9.968;2023-06-04T08:46:53;20.60;55.50
28071;DHT22;15383;48.408;9.968;2023-06-04T08:49:22;20.60;55.50
28071;DHT22;15383;48.408;9.968;2023-06-04T08:51:50;20.60;55.50
28071;DHT22;15383;48.408;9.968;2023-06-04T08:54:16;20.70;55.90
28071;DHT22;15383;48.408;9.968;2023-06-04T08:56:41;20.70;55.60
28071;DHT22;15383;48.408;9.968;2023-06-04T08:59:09;20.70;55.30
28071;DHT22;15383;48.408;9.968;2023-06-04T09:01:36;20.70;55.30
28071;DHT22;15383;48.408;9.968;2023-06-04T09:04:05;20.70;55.20
28071;DHT22;15383;48.408;9.968;2023-06-04T09:06:34;20.80;55.30
28071;DHT22;15383;48.408;9.968;2023-06-04T09:09:03;20.80;55.10
28071;DHT22;15383;48.408;9.968;2023-06-04T09:11:32;20.90;55.30
28071;DHT22;15383;48.408;9.968;2023-06-04T09:13:59;20.90;55.30
28071;DHT22;15383;48.408;9.968;2023-06-04T09:16:25;21.00;55.50
28071;DHT22;15383;48.408;9.968;2023-06-04T09:18:51;21.00;55.40
28071;DHT22;15383;48.408;9.968;2023-06-04T09:21:16;21.00;55.70
28071;DHT22;15383;48.408;9.968;2023-06-04T09:23:48;21.00;55.80
28071;DHT22;15383;48.408;9.968;2023-06-04T09:26:13;21.10;56.00
28071;DHT22;15383;48.408;9.968;2023-06-04T09:28:40;21.10;55.70
28071;DHT22;15383;48.408;9.968;2023-06-04T09:31:07;21.10;55.60
28071;DHT22;15383;48.408;9.968;2023-06-04T09:33:41;21.10;55.50
28071;DHT22;15383;48.408;9.968;2023-06-04T09:36:06;21.20;55.30
28071;DHT22;15383;48.408;9.968;2023-06-04T09:38:33;21.20;54.60
28071;DHT22;15383;48.408;9.968;2023-06-04T09:41:32;21.20;54.80
28071;DHT22;15383;48.408;9.968;2023-06-04T09:43:58;21.30;54.80
28071;DHT22;15383;48.408;9.968;2023-06-04T09:46:25;21.30;54.60
28071;DHT22;15383;48.408;9.968;2023-06-04T09:48:58;21.30;54.90
28071;DHT22;15383;48.408;9.968;2023-06-04T09:51:24;21.30;54.80
28071;DHT22;15383;48.408;9.968;2023-06-04T09:53:53;21.20;54.60
28071;DHT22;15383;48.408;9.968;2023-06-04T09:56:19;21.30;54.50
28071;DHT22;15383;48.408;9.968;2023-06-04T09:58:44;21.30;53.80
28071;DHT22;15383;48.408;9.968;2023-06-04T10:01:11;21.30;54.10
28071;DHT22;15383;48.408;9.968;2023-06-04T10:03:40;21.30;54.30
28071;DHT22;15383;48.408;9.968;2023-06-04T10:06:06;21.30;55.10
28071;DHT22;15383;48.408;9.968;2023-06-04T10:08:32;21.30;54.70
28071;DHT22;15383;48.408;9.968;2023-06-04T10:10:59;21.30;54.50
28071;DHT22;15383;48.408;9.968;2023-06-04T10:13:26;21.30;54.50
28071;DHT22;15383;48.408;9.968;2023-06-04T10:15:52;21.30;54.50
28071;DHT22;15383;48.408;9.968;2023-06-04T10:18:18;21.30;53.80
28071;DHT22;15383;48.408;9.968;2023-06-04T10:20:44;21.30;55.30
28071;DHT22;15383;48.408;9.968;2023-06-04T10:23:10;21.30;54.10
28071;DHT22;15383;48.408;9.968;2023-06-04T10:25:36;21.20;53.90
28071;DHT22;15383;48.408;9.968;2023-06-04T10:28:02;21.30;53.90
28071;DHT22;15383;48.408;9.968;2023-06-04T10:30:29;21.20;54.10
28071;DHT22;15383;48.408;9.968;2023-06-04T10:32:55;21.20;54.40
28071;DHT22;15383;48.408;9.968;2023-06-04T10:35:31;21.20;54.90
28071;DHT22;15383;48.408;9.968;2023-06-04T10:38:04;21.20;54.60
28071;DHT22;15383;48.408;9.968;2023-06-04T10:40:34;21.20;54.70
28071;DHT22;15383;48.408;9.968;2023-06-04T10:43:10;21.20;54.50
28071;DHT22;15383;48.408;9.968;2023-06-04T10:45:35;21.20;54.80
28071;DHT22;15383;48.408;9.968;2023-06-04T10:48:02;21.20;56.10
28071;DHT22;15383;48.408;9.968;2023-06-04T10:50:28;21.20;55.70
28071;DHT22;15383;48.408;9.968;2023-06-04T10:52:54;21.20;55.30
28071;DHT22;15383;48.408;9.968;2023-06-04T10:55:20;21.20;55.20
28071;DHT22;15383;48.408;9.968;2023-06-04T10:57:56;21.10;54.80
28071;DHT22;15383;48.408;9.968;2023-06-04T11:00:22;21.10;54.70
28071;DHT22;15383;48.408;9.968;2023-06-04T11:02:52;21.10;54.60
28071;DHT22;15383;48.408;9.968;2023-06-04T11:05:17;21.10;54.70
28071;DHT22;15383;48.408;9.968;2023-06-04T11:07:43;21.00;54.40
28071;DHT22;15383;48.408;9.968;2023-06-04T11:10:13;21.00;54.50
28071;DHT22;15383;48.408;9.968;2023-06-04T11:15:07;20.90;54.50
28071;DHT22;15383;48.408;9.968;2023-06-04T11:17:33;20.90;54.60
28071;DHT22;15383;48.408;9.968;2023-06-04T11:19:59;20.90;54.90
28071;DHT22;15383;48.408;9.968;2023-06-04T11:22:25;20.90;54.40
28071;DHT22;15383;48.408;9.968;2023-06-04T11:24:57;20.90;54.80
28071;DHT22;15383;48.408;9.968;2023-06-04T11:27:25;20.90;54.90
28071;DHT22;15383;48.408;9.968;2023-06-04T11:29:51;20.80;55.00
28071;DHT22;15383;48.408;9.968;2023-06-04T11:32:24;20.80;54.70
28071;DHT22;15383;48.408;9.968;2023-06-04T11:34:49;20.80;55.60
28071;DHT22;15383;48.408;9.968;2023-06-04T11:37:15;20.80;55.10
28071;DHT22;15383;48.408;9.968;2023-06-04T11:39:40;20.80;55.10
28071;DHT22;15383;48.408;9.968;2023-06-04T11:42:09;20.70;55.00
28071;DHT22;15383;48.408;9.968;2023-06-04T11:44:34;20.70;54.80
28071;DHT22;15383;48.408;9.968;2023-06-04T11:47:00;20.70;54.40
28071;DHT22;15383;48.408;9.968;2023-06-04T11:49:26;20.70;53.70
28071;DHT22;15383;48.408;9.968;2023-06-04T11:51:52;20.70;54.00
28071;DHT22;15383;48.408;9.968;2023-06-04T11:54:19;20.70;54.10
28071;DHT22;15383;48.408;9.968;2023-06-04T11:56:45;20.70;55.10
28071;DHT22;15383;48.408;9.968;2023-06-04T11:59:15;20.70;56.20
28071;DHT22;15383;48.408;9.968;2023-06-04T12:01:45;20.70;55.30
28071;DHT22;15383;48.408;9.968;2023-06-04T12:04:15;20.70;55.10
28071;DHT22;15383;48.408;9.968;2023-06-04T12:06:58;20.70;55.30
28071;DHT22;15383;48.408;9.968;2023-06-04T12:09:24;20.60;54.60
28071;DHT22;15383;48.408;9.968;2023-06-04T12:11:57;20.60;54.30
28071;DHT22;15383;48.408;9.968;2023-06-04T12:14:22;20.60;54.50
28071;DHT22;15383;48.408;9.968;2023-06-04T12:17:00;20.60;54.40
28071;DHT22;15383;48.408;9.968;2023-06-04T12:19:26;20.60;54.30
28071;DHT22;15383;48.408;9.968;2023-06-04T12:22:01;20.60;55.30
28071;DHT22;15383;48.408;9.968;2023-06-04T12:24:27;20.60;54.90
28071;DHT22;15383;48.408;9.968;2023-06-04T12:27:00;20.60;55.60
28071;DHT22;15383;48.408;9.968;2023-06-04T12:29:26;20.60;55.30
28071;DHT22;15383;48.408;9.968;2023-06-04T12:31:52;20.60;55.20
28071;DHT22;15383;48.408;9.968;2023-06-04T12:34:28;20.60;55.10
28071;DHT22;15383;48.408;9.968;2023-06-04T12:36:57;20.60;55.20
28071;DHT22;15383;48.408;9.968;2023-06-04T12:39:25;20.60;53.80
28071;DHT22;15383;48.408;9.968;2023-06-04T12:41:51;20.60;54.40
28071;DHT22;15383;48.408;9.968;2023-06-04T12:44:16;20.60;54.40
28071;DHT22;15383;48.408;9.968;2023-06-04T12:46:42;20.50;54.20
28071;DHT22;15383;48.408;9.968;2023-06-04T12:49:07;20.50;54.70
28071;DHT22;15383;48.408;9.968;2023-06-04T12:51:33;20.60;54.40
28071;DHT22;15383;48.408;9.968;2023-06-04T12:53:58;20.60;54.30
28071;DHT22;15383;48.408;9.968;2023-06-04T12:56:25;20.60;53.80
28071;DHT22;15383;48.408;9.968;2023-06-04T12:58:51;20.60;53.90
28071;DHT22;15383;48.408;9.968;2023-06-04T13:01:17;20.60;54.10
28071;DHT22;15383;48.408;9.968;2023-06-04T13:03:42;20.50;53.80
28071;DHT22;15383;48.408;9.968;2023-06-04T13:06:08;20.50;53.70
28071;DHT22;15383;48.408;9.968;2023-06-04T13:08:33;20.50;54.10
28071;DHT22;15383;48.408;9.968;2023-06-04T13:10:59;20.50;54.90
28071;DHT22;15383;48.408;9.968;2023-06-04T13:13:24;20.50;53.80
28071;DHT22;15383;48.408;9.968;2023-06-04T13:15:50;20.40;54.20
28071;DHT22;15383;48.408;9.968;2023-06-04T13:18:15;20.40;54.20
28071;DHT22;15383;48.408;9.968;2023-06-04T13:20:41;20.50;53.90
28071;DHT22;15383;48.408;9.968;2023-06-04T13:23:07;20.50;53.60
28071;DHT22;15383;48.408;9.968;2023-06-04T13:25:33;20.50;53.80
28071;DHT22;15383;48.408;9.968;2023-06-04T13:27:59;20.50;53.50
28071;DHT22;15383;48.408;9.968;2023-06-04T13:30:24;20.50;55.10
28071;DHT22;15383;48.408;9.968;2023-06-04T13:32:50;20.60;55.90
28071;DHT22;15383;48.408;9.968;2023-06-04T13:35:15;20.60;54.80
28071;DHT22;15383;48.408;9.968;2023-06-04T13:37:41;20.60;54.40
28071;DHT22;15383;48.408;9.968;2023-06-04T13:40:06;20.60;53.70
28071;DHT22;15383;48.408;9.968;2023-06-04T13:42:32;20.50;53.40
28071;DHT22;15383;48.408;9.968;2023-06-04T13:44:58;20.40;54.00
28071;DHT22;15383;48.408;9.968;2023-06-04T13:47:24;20.40;54.40
28071;DHT22;15383;48.408;9.968;2023-06-04T13:49:49;20.40;54.10
28071;DHT22;15383;48.408;9.968;2023-06-04T13:52:15;20.40;53.90
28071;DHT22;15383;48.408;9.968;2023-06-04T13:54:41;20.40;53.70
28071;DHT22;15383;48.408;9.968;2023-06-04T13:57:06;20.40;54.10
28071;DHT22;15383;48.408;9.968;2023-06-04T13:59:32;20.50;54.20
28071;DHT22;15383;48.408;9.968;2023-06-04T14:01:58;20.40;54.20
28071;DHT22;15383;48.408;9.968;2023-06-04T14:04:23;20.50;53.80
28071;DHT22;15383;48.408;9.968;2023-06-04T14:06:49;20.50;55.00
28071;DHT22;15383;48.408;9.968;2023-06-04T14:09:15;20.50;54.60
28071;DHT22;15383;48.408;9.968;2023-06-04T14:11:40;20.50;53.70
28071;DHT22;15383;48.408;9.968;2023-06-04T14:14:06;20.50;54.00
28071;DHT22;15383;48.408;9.968;2023-06-04T14:16:32;20.50;53.40
28071;DHT22;15383;48.408;9.968;2023-06-04T14:18:57;20.50;53.90
28071;DHT22;15383;48.408;9.968;2023-06-04T14:21:23;20.50;53.50
28071;DHT22;15383;48.408;9.968;2023-06-04T14:23:48;20.50;53.40
28071;DHT22;15383;48.408;9.968;2023-06-04T14:26:15;20.50;53.20
28071;DHT22;15383;48.408;9.968;2023-06-04T14:28:43;20.50;53.00
28071;DHT22;15383;48.408;9.968;2023-06-04T14:31:08;20.40;52.80
28071;DHT22;15383;48.408;9.968;2023-06-04T14:33:34;20.50;53.00
28071;DHT22;15383;48.408;9.968;2023-06-04T14:36:00;20.40;53.50
28071;DHT22;15383;48.408;9.968;2023-06-04T14:38:26;20.40;53.20
28071;DHT22;15383;48.408;9.968;2023-06-04T14:40:51;20.40;53.80
28071;DHT22;15383;48.408;9.968;2023-06-04T14:43:17;20.40;53.70
28071;DHT22;15383;48.408;9.968;2023-06-04T14:45:42;20.40;53.30
28071;DHT22;15383;48.408;9.968;2023-06-04T14:48:08;20.40;53.20
28071;DHT22;15383;48.408;9.968;2023-06-04T14:50:34;20.40;53.20
28071;DHT22;15383;48.408;9.968;2023-06-04T14:52:59;20.40;53.00
28071;DHT22;15383;48.408;9.968;2023-06-04T14:55:26;20.40;53.00
28071;DHT22;15383;48.408;9.968;2023-06-04T14:57:51;20.30;52.70
28071;DHT22;15383;48.408;9.968;2023-06-04T15:00:17;20.40;52.70
28071;DHT22;15383;48.408;9.968;2023-06-04T15:02:42;20.40;52.70
28071;DHT22;15383;48.408;9.968;2023-06-04T15:05:08;20.40;52.50
28071;DHT22;15383;48.408;9.968;2023-06-04T15:07:33;20.40;53.70
28071;DHT22;15383;48.408;9.968;2023-06-04T15:09:59;20.40;52.50
28071;DHT22;15383;48.408;9.968;2023-06-04T15:12:27;20.40;52.90
28071;DHT22;15383;48.408;9.968;2023-06-04T15:14:53;20.40;52.60
28071;DHT22;15383;48.408;9.968;2023-06-04T15:17:18;20.40;52.50
28071;DHT22;15383;48.408;9.968;2023-06-04T15:19:43;20.30;52.40
28071;DHT22;15383;48.408;9.968;2023-06-04T15:22:09;20.40;51.90
28071;DHT22;15383;48.408;9.968;2023-06-04T15:24:34;20.30;52.00
28071;DHT22;15383;48.408;9.968;2023-06-04T15:27:00;20.30;52.30
28071;DHT22;15383;48.408;9.968;2023-06-04T15:29:25;20.30;52.30